createdAt,value
2017-11-28T00:00:14.941Z,69.60
2017-11-28T00:02:43.226Z,69.80
2017-11-28T00:05:11.512Z,69.30
2017-11-28T00:07:39.816Z,69.40
2017-11-28T00:10:07.317Z,69.30
2017-11-28T00:12:34.835Z,69.50
2017-11-28T00:15:02.341Z,69.50
2017-11-28T00:17:30.651Z,69.50
2017-11-28T00:19:58.185Z,69.50
2017-11-28T00:22:26.451Z,69.70
2017-11-28T00:24:54.747Z,69.80
2017-11-28T00:27:23.044Z,69.90
2017-11-28T00:29:50.599Z,69.80
2017-11-28T00:32:18.163Z,69.60
2017-11-28T00:34:45.685Z,69.70
2017-11-28T00:37:13.982Z,69.70
2017-11-28T00:39:41.513Z,69.60
2017-11-28T00:42:09.787Z,70.00
2017-11-28T00:44:38.089Z,70.00
2017-11-28T00:47:05.622Z,70.00
2017-11-28T00:49:33.899Z,69.90
2017-11-28T00:52:02.187Z,69.90
2017-11-28T00:54:29.707Z,69.80
2017-11-28T00:56:57.214Z,69.80
2017-11-28T00:59:24.742Z,69.70
2017-11-28T01:01:52.333Z,69.70
2017-11-28T01:04:19.842Z,69.80
2017-11-28T01:06:47.366Z,69.90
2017-11-28T01:09:14.880Z,70.00
2017-11-28T01:11:43.155Z,71.30
2017-11-28T01:14:11.417Z,70.30
2017-11-28T01:16:38.982Z,70.30
2017-11-28T01:19:06.476Z,70.20
2017-11-28T01:21:33.983Z,70.00
2017-11-28T01:24:01.510Z,70.20
2017-11-28T01:26:28.997Z,70.60
2017-11-28T01:28:57.295Z,71.20
2017-11-28T01:31:25.571Z,71.10
2017-11-28T01:33:53.889Z,71.20
2017-11-28T01:36:21.406Z,71.20
2017-11-28T01:38:49.707Z,71.20
2017-11-28T01:41:17.257Z,71.30
2017-11-28T01:43:44.774Z,71.10
2017-11-28T01:46:13.112Z,71.20
2017-11-28T01:48:40.613Z,71.40
2017-11-28T01:51:08.119Z,71.50
2017-11-28T01:53:35.663Z,71.70
2017-11-28T01:56:03.171Z,71.50
2017-11-28T01:58:30.711Z,71.40
2017-11-28T02:00:58.204Z,71.40
2017-11-28T02:03:25.706Z,71.50
2017-11-28T02:05:53.218Z,71.40
2017-11-28T02:08:20.718Z,71.30
2017-11-28T02:10:48.270Z,71.40
2017-11-28T02:13:15.767Z,71.70
2017-11-28T02:15:43.270Z,71.60
2017-11-28T02:18:11.563Z,71.60
2017-11-28T02:20:39.065Z,71.60
2017-11-28T02:23:06.594Z,71.50
2017-11-28T02:25:34.104Z,71.80
2017-11-28T02:28:02.415Z,72.00
2017-11-28T02:30:29.913Z,72.00
2017-11-28T02:32:57.415Z,71.90
2017-11-28T02:35:24.942Z,71.90
2017-11-28T02:37:52.448Z,71.70
2017-11-28T02:40:26.535Z,71.90
2017-11-28T02:42:54.796Z,71.80
2017-11-28T02:45:23.110Z,71.70
2017-11-28T02:47:50.601Z,71.70
2017-11-28T02:50:18.130Z,71.70
2017-11-28T02:52:45.648Z,71.70
2017-11-28T02:55:14.653Z,71.50
2017-11-28T02:57:42.933Z,71.40
2017-11-28T03:00:10.509Z,71.40
2017-11-28T03:02:38.065Z,71.40
2017-11-28T03:05:05.562Z,71.30
2017-11-28T03:07:35.830Z,71.20
2017-11-28T03:10:14.011Z,71.20
2017-11-28T03:12:43.044Z,71.00
2017-11-28T03:15:14.205Z,70.90
2017-11-28T03:17:41.703Z,70.70
2017-11-28T03:20:23.010Z,70.90
2017-11-28T03:22:55.367Z,70.70
2017-11-28T03:25:38.536Z,70.50
2017-11-28T03:28:21.913Z,70.50
2017-11-28T03:30:51.031Z,70.00
2017-11-28T03:33:18.537Z,70.00
2017-11-28T03:35:46.056Z,70.30
2017-11-28T03:38:13.549Z,70.00
2017-11-28T03:40:41.051Z,69.80
2017-11-28T03:43:09.346Z,69.90
2017-11-28T03:48:35.369Z,69.70
2017-11-28T03:51:02.872Z,70.30
2017-11-28T03:53:30.373Z,69.70
2017-11-28T03:55:58.663Z,69.30
2017-11-28T03:58:27.037Z,69.30
2017-11-28T04:00:54.549Z,69.30
2017-11-28T04:03:22.055Z,69.30
2017-11-28T04:05:49.574Z,69.30
2017-11-28T04:08:17.070Z,69.30
2017-11-28T04:10:44.583Z,69.30
2017-11-28T04:13:12.096Z,69.00
2017-11-28T04:15:39.630Z,69.00
2017-11-28T04:18:07.918Z,69.00
2017-11-28T04:20:35.446Z,69.00
2017-11-28T04:23:02.961Z,68.90
2017-11-28T04:25:30.497Z,68.80
2017-11-28T04:27:58.021Z,69.10
2017-11-28T04:30:25.517Z,69.00
2017-11-28T04:32:53.078Z,68.80
2017-11-28T04:35:20.573Z,68.90
2017-11-28T04:37:48.102Z,69.10
2017-11-28T04:40:15.623Z,69.30
2017-11-28T04:42:43.924Z,69.20
2017-11-28T04:45:11.432Z,69.20
2017-11-28T04:47:38.959Z,69.10
2017-11-28T04:50:06.478Z,69.30
2017-11-28T04:52:34.731Z,69.30
2017-11-28T04:55:02.325Z,69.30
2017-11-28T04:57:29.820Z,69.10
2017-11-28T04:59:57.322Z,69.30
2017-11-28T05:02:25.726Z,69.40
2017-11-28T05:04:53.228Z,69.30
2017-11-28T05:07:20.733Z,69.60
2017-11-28T05:09:48.278Z,69.70
2017-11-28T05:12:16.555Z,69.90
2017-11-28T05:14:46.418Z,70.10
2017-11-28T05:17:13.946Z,70.10
2017-11-28T05:19:41.462Z,70.10
2017-11-28T05:22:09.783Z,70.80
2017-11-28T05:24:37.311Z,70.10
2017-11-28T05:27:05.710Z,70.30
2017-11-28T05:29:33.254Z,70.10
2017-11-28T05:32:01.522Z,70.20
2017-11-28T05:34:29.806Z,69.70
2017-11-28T05:36:57.329Z,69.60
2017-11-28T05:39:24.814Z,69.80
2017-11-28T05:41:53.108Z,69.60
2017-11-28T05:44:20.630Z,69.50
2017-11-28T05:46:48.934Z,69.90
2017-11-28T05:49:16.463Z,69.90
2017-11-28T05:51:43.971Z,69.90
2017-11-28T05:54:11.509Z,70.00
2017-11-28T05:56:39.010Z,69.70
2017-11-28T05:59:06.528Z,69.90
2017-11-28T06:01:34.025Z,70.00
2017-11-28T06:04:01.543Z,70.00
2017-11-28T06:06:29.058Z,69.80
2017-11-28T06:08:56.573Z,70.10
2017-11-28T06:11:24.104Z,69.50
2017-11-28T06:13:52.413Z,69.70
2017-11-28T06:16:19.914Z,69.70
2017-11-28T06:18:47.445Z,69.60
2017-11-28T06:21:14.951Z,69.90
2017-11-28T06:23:42.453Z,69.60
2017-11-28T06:26:10.206Z,69.60
2017-11-28T06:28:37.707Z,69.60
2017-11-28T06:31:05.979Z,69.70
2017-11-28T06:33:33.506Z,69.70
2017-11-28T06:36:01.032Z,69.60
2017-11-28T06:38:28.605Z,69.80
2017-11-28T06:40:56.108Z,70.00
2017-11-28T06:43:23.657Z,70.30
2017-11-28T06:45:51.191Z,70.20
2017-11-28T06:48:18.695Z,70.40
2017-11-28T06:50:46.997Z,70.20
2017-11-28T06:53:14.549Z,70.20
2017-11-28T06:55:42.055Z,70.10
2017-11-28T06:58:09.667Z,70.00
2017-11-28T07:00:37.242Z,70.10
2017-11-28T07:03:04.803Z,70.40
2017-11-28T07:05:32.324Z,70.30
2017-11-28T07:08:00.610Z,70.10
2017-11-28T07:10:28.898Z,70.00
2017-11-28T07:12:56.408Z,70.80
2017-11-28T07:15:23.954Z,70.10
2017-11-28T07:17:51.887Z,70.30
2017-11-28T07:20:19.397Z,70.10
2017-11-28T07:22:46.946Z,70.00
2017-11-28T07:25:14.422Z,70.20
2017-11-28T07:27:42.526Z,70.20
2017-11-28T07:30:10.046Z,70.50
2017-11-28T07:32:38.462Z,71.30
2017-11-28T07:35:06.015Z,70.50
2017-11-28T07:37:33.504Z,70.50
2017-11-28T07:40:01.034Z,70.50
2017-11-28T07:42:28.536Z,70.60
2017-11-28T07:44:56.030Z,70.40
2017-11-28T07:47:24.307Z,70.50
2017-11-28T07:49:52.577Z,70.50
2017-11-28T07:52:20.873Z,70.80
2017-11-28T07:54:48.372Z,70.80
2017-11-28T07:57:15.879Z,71.00
2017-11-28T07:59:43.414Z,70.90
2017-11-28T08:02:10.916Z,71.00
2017-11-28T08:04:38.444Z,71.20
2017-11-28T08:07:06.722Z,70.60
2017-11-28T08:09:35.009Z,70.70
2017-11-28T08:12:02.566Z,70.60
2017-11-28T08:14:30.108Z,70.40
2017-11-28T08:16:58.407Z,70.80
2017-11-28T08:19:25.910Z,70.80
2017-11-28T08:21:53.442Z,70.60
2017-11-28T08:24:20.930Z,70.90
2017-11-28T08:26:48.445Z,70.70
2017-11-28T08:29:15.995Z,71.00
2017-11-28T08:31:43.490Z,71.00
2017-11-28T08:34:11.019Z,71.10
2017-11-28T08:36:38.517Z,71.00
2017-11-28T08:39:06.012Z,70.90
2017-11-28T08:41:33.526Z,70.80
2017-11-28T08:44:01.027Z,70.50
2017-11-28T08:46:28.570Z,70.70
2017-11-28T08:48:56.822Z,70.60
2017-11-28T08:51:24.324Z,70.60
2017-11-28T08:53:51.905Z,70.40
2017-11-28T08:56:19.402Z,70.50
2017-11-28T08:58:47.709Z,70.30
2017-11-28T09:01:15.212Z,70.30
2017-11-28T09:03:42.738Z,70.30
2017-11-28T09:06:10.234Z,70.40
2017-11-28T09:08:37.802Z,69.90
2017-11-28T09:11:05.300Z,70.60
2017-11-28T09:13:32.802Z,70.30
2017-11-28T09:16:00.331Z,70.10
2017-11-28T09:18:27.832Z,70.20
2017-11-28T09:20:55.351Z,70.10
2017-11-28T09:23:22.892Z,69.90
2017-11-28T09:25:50.418Z,69.70
2017-11-28T09:28:18.687Z,69.60
2017-11-28T09:30:46.185Z,69.50
2017-11-28T09:33:13.716Z,69.50
2017-11-28T09:35:41.996Z,69.50
2017-11-28T09:38:10.384Z,69.20
2017-11-28T09:40:37.946Z,69.00
2017-11-28T09:43:05.458Z,69.00
2017-11-28T09:45:33.053Z,68.80
2017-11-28T09:48:00.575Z,68.70
2017-11-28T09:50:28.109Z,68.40
2017-11-28T09:52:55.610Z,68.80
2017-11-28T09:55:23.146Z,68.90
2017-11-28T09:57:50.648Z,69.00
2017-11-28T10:00:18.174Z,69.20
2017-11-28T10:02:45.711Z,69.30
2017-11-28T10:05:13.221Z,69.20
2017-11-28T10:07:40.739Z,69.20
2017-11-28T10:10:08.271Z,69.10
2017-11-28T10:12:35.780Z,69.10
2017-11-28T10:15:03.315Z,68.90
2017-11-28T10:17:30.810Z,68.60
2017-11-28T10:19:58.381Z,68.70
2017-11-28T10:22:25.889Z,68.90
2017-11-28T10:24:53.400Z,69.00
2017-11-28T10:27:20.954Z,69.30
2017-11-28T10:29:48.494Z,69.30
2017-11-28T10:32:16.748Z,68.80
2017-11-28T10:34:45.061Z,69.10
2017-11-28T10:37:12.586Z,69.10
2017-11-28T10:39:40.101Z,69.20
2017-11-28T10:42:07.652Z,68.60
2017-11-28T10:44:35.191Z,68.80
2017-11-28T10:47:02.750Z,68.70
2017-11-28T10:49:30.270Z,68.80
2017-11-28T10:51:58.542Z,68.90
2017-11-28T10:54:26.061Z,68.80
2017-11-28T10:56:53.601Z,68.50
2017-11-28T10:59:21.134Z,68.60
2017-11-28T11:01:48.636Z,68.80
2017-11-28T11:04:16.180Z,69.00
2017-11-28T11:06:43.695Z,69.00
2017-11-28T11:09:11.975Z,68.40
2017-11-28T11:11:40.290Z,68.10
2017-11-28T11:14:07.806Z,68.10
2017-11-28T11:16:36.116Z,68.00
2017-11-28T11:19:03.626Z,68.00
2017-11-28T11:21:31.166Z,67.70
2017-11-28T11:23:58.678Z,68.00
2017-11-28T11:26:26.177Z,67.90
2017-11-28T11:28:53.715Z,67.60
2017-11-28T11:31:21.219Z,67.70
2017-11-28T11:33:48.723Z,67.90
2017-11-28T11:36:16.275Z,68.50
2017-11-28T11:38:43.832Z,68.70
2017-11-28T11:41:11.387Z,68.50
2017-11-28T11:43:38.885Z,68.50
2017-11-28T11:46:06.445Z,68.30
2017-11-28T11:48:33.959Z,68.20
2017-11-28T11:51:01.463Z,68.10
2017-11-28T11:53:28.986Z,68.00
2017-11-28T11:55:56.551Z,68.00
2017-11-28T11:58:24.078Z,67.40
2017-11-28T12:00:51.592Z,67.00
2017-11-28T12:03:19.089Z,67.00
2017-11-28T12:05:47.387Z,66.90
2017-11-28T12:08:14.895Z,66.90
2017-11-28T12:10:42.426Z,67.00
2017-11-28T12:13:09.968Z,66.80
2017-11-28T12:15:37.483Z,66.70
2017-11-28T12:18:05.775Z,66.80
2017-11-28T12:20:33.294Z,66.70
2017-11-28T12:23:00.833Z,66.50
2017-11-28T12:25:28.362Z,66.30
2017-11-28T12:27:56.043Z,66.50
2017-11-28T12:30:23.591Z,66.50
2017-11-28T12:32:51.129Z,66.50
2017-11-28T12:35:18.712Z,66.60
2017-11-28T12:37:46.214Z,66.40
2017-11-28T12:40:13.821Z,66.30
2017-11-28T12:42:41.343Z,66.10
2017-11-28T12:45:09.602Z,65.80
2017-11-28T12:47:37.119Z,65.80
2017-11-28T12:50:04.621Z,66.00
2017-11-28T12:52:32.935Z,66.40
2017-11-28T12:55:00.433Z,66.50
2017-11-28T12:57:27.937Z,66.10
2017-11-28T12:59:55.469Z,66.60
2017-11-28T13:02:23.062Z,66.50
2017-11-28T13:04:50.646Z,66.50
2017-11-28T13:07:18.171Z,66.80
2017-11-28T13:09:46.464Z,66.50
2017-11-28T13:12:13.965Z,66.30
2017-11-28T13:14:41.466Z,66.10
2017-11-28T13:17:09.050Z,66.30
2017-11-28T13:19:36.602Z,66.20
2017-11-28T13:22:04.363Z,66.40
2017-11-28T13:24:31.867Z,66.40
2017-11-28T13:26:59.367Z,66.40
2017-11-28T13:29:26.930Z,66.20
2017-11-28T13:31:54.434Z,66.00
2017-11-28T13:34:22.047Z,65.80
2017-11-28T13:36:49.567Z,65.50
2017-11-28T13:39:17.121Z,65.50
2017-11-28T13:41:46.126Z,65.70
2017-11-28T13:44:14.393Z,66.20
2017-11-28T13:46:41.967Z,65.80
2017-11-28T13:49:10.279Z,65.90
2017-11-28T13:51:38.114Z,65.80
2017-11-28T13:54:05.651Z,66.00
2017-11-28T13:56:33.186Z,66.30
2017-11-28T13:59:00.692Z,66.30
2017-11-28T14:01:28.211Z,66.10
2017-11-28T14:03:55.736Z,65.90
2017-11-28T14:06:23.254Z,66.20
2017-11-28T14:08:51.546Z,66.40
2017-11-28T14:11:19.111Z,66.40
2017-11-28T14:13:46.617Z,67.00
2017-11-28T14:16:14.170Z,67.10
2017-11-28T14:18:41.697Z,67.40
2017-11-28T14:21:19.163Z,67.70
2017-11-28T14:23:52.321Z,67.50
2017-11-28T14:29:26.394Z,68.00
2017-11-28T14:32:09.692Z,68.10
2017-11-28T14:34:54.581Z,68.30
2017-11-28T14:37:22.127Z,68.20
2017-11-28T14:39:49.675Z,68.80
2017-11-28T14:42:17.984Z,68.40
2017-11-28T14:44:50.022Z,68.20
2017-11-28T14:47:18.281Z,68.90
2017-11-28T14:49:45.817Z,68.70
2017-11-28T14:52:17.022Z,68.70
2017-11-28T14:54:50.306Z,68.20
2017-11-28T14:57:23.597Z,69.00
2017-11-28T14:59:56.878Z,68.60
2017-11-28T15:02:30.880Z,69.00
2017-11-28T15:05:04.943Z,69.40
2017-11-28T15:07:38.070Z,69.40
2017-11-28T15:13:29.178Z,70.30
2017-11-28T15:16:02.316Z,70.50
2017-11-28T15:21:39.179Z,70.90
2017-11-28T15:24:11.232Z,71.20
2017-11-28T15:26:38.769Z,71.00
2017-11-28T15:29:08.937Z,70.80
2017-11-28T15:31:37.238Z,70.80
2017-11-28T15:34:04.747Z,70.70
2017-11-28T15:36:32.253Z,70.50
2017-11-28T15:38:59.767Z,71.10
2017-11-28T15:41:27.307Z,70.90
2017-11-28T15:43:54.953Z,71.30
2017-11-28T15:46:22.463Z,71.50
2017-11-28T15:48:50.745Z,72.30
2017-11-28T15:51:19.049Z,72.50
2017-11-28T15:53:46.543Z,72.50
2017-11-28T15:56:14.081Z,72.20
2017-11-28T15:58:41.591Z,72.50
2017-11-28T16:01:09.897Z,73.20
2017-11-28T16:03:37.434Z,73.20
2017-11-28T16:06:04.984Z,73.60
2017-11-28T16:08:33.272Z,74.20
2017-11-28T16:11:00.868Z,74.20
2017-11-28T16:13:28.368Z,74.90
2017-11-28T16:15:56.655Z,75.70
2017-11-28T16:18:24.218Z,75.70
2017-11-28T16:20:51.713Z,75.60
2017-11-28T16:23:19.272Z,76.00
2017-11-28T16:25:46.786Z,76.10
2017-11-28T16:28:15.101Z,76.30
2017-11-28T16:30:42.632Z,76.20
2017-11-28T16:33:10.160Z,76.70
2017-11-28T16:35:38.525Z,78.30
2017-11-28T16:38:07.558Z,76.90
2017-11-28T16:40:35.146Z,76.90
2017-11-28T16:43:02.699Z,77.20
2017-11-28T16:45:30.206Z,77.60
2017-11-28T16:47:57.749Z,78.10
2017-11-28T16:50:25.285Z,77.80
2017-11-28T16:52:52.802Z,77.50
2017-11-28T16:55:20.298Z,77.50
2017-11-28T16:57:47.867Z,77.50
2017-11-28T17:00:15.377Z,77.50
2017-11-28T17:02:42.921Z,78.00
2017-11-28T17:05:11.256Z,77.90
2017-11-28T17:07:38.787Z,77.90
2017-11-28T17:10:06.311Z,77.80
2017-11-28T17:12:34.614Z,78.70
2017-11-28T17:15:02.138Z,78.70
2017-11-28T17:17:30.399Z,78.70
2017-11-28T17:19:57.912Z,78.70
2017-11-28T17:22:25.455Z,79.00
2017-11-28T17:24:52.959Z,78.90
2017-11-28T17:27:20.521Z,78.70
2017-11-28T17:29:48.039Z,79.00
2017-11-28T17:32:15.615Z,79.00
2017-11-28T17:34:43.165Z,79.10
2017-11-28T17:37:10.723Z,78.80
2017-11-28T17:39:38.252Z,79.20
2017-11-28T17:42:05.853Z,79.80
2017-11-28T17:44:33.395Z,79.40
2017-11-28T17:47:00.895Z,79.40
2017-11-28T17:49:28.442Z,80.00
2017-11-28T17:51:55.979Z,79.30
2017-11-28T17:54:23.539Z,79.30
2017-11-28T17:56:51.147Z,79.50
2017-11-28T17:59:18.667Z,79.70
2017-11-28T18:01:46.211Z,79.40
2017-11-28T18:04:13.743Z,79.90
2017-11-28T18:06:41.307Z,79.90
2017-11-28T18:09:08.835Z,80.40
2017-11-28T18:11:37.125Z,80.40
2017-11-28T18:14:04.653Z,80.40
2017-11-28T18:16:32.166Z,80.10
2017-11-28T18:18:59.700Z,79.90
2017-11-28T18:21:27.212Z,80.00
2017-11-28T18:23:54.708Z,79.90
2017-11-28T18:26:23.032Z,80.00
2017-11-28T18:28:50.565Z,80.00
2017-11-28T18:31:18.134Z,80.20
2017-11-28T18:33:45.659Z,80.50
2017-11-28T18:36:13.971Z,80.20
2017-11-28T18:38:41.522Z,80.10
2017-11-28T18:41:09.033Z,80.30
2017-11-28T18:43:37.467Z,80.00
2017-11-28T18:46:05.009Z,80.00
2017-11-28T18:48:32.587Z,80.20
2017-11-28T18:51:00.091Z,79.90
2017-11-28T18:53:28.412Z,79.60
2017-11-28T18:55:55.955Z,79.60
2017-11-28T18:58:23.521Z,79.80
2017-11-28T19:00:51.085Z,79.50
2017-11-28T19:03:18.622Z,79.10
2017-11-28T19:05:46.166Z,79.20
2017-11-28T19:08:14.450Z,79.70
2017-11-28T19:10:42.742Z,79.50
2017-11-28T19:13:10.333Z,79.40
2017-11-28T19:15:37.907Z,79.30
2017-11-28T19:18:05.538Z,79.60
2017-11-28T19:20:33.065Z,79.80
2017-11-28T19:23:00.759Z,79.70
2017-11-28T19:25:28.268Z,79.90
2017-11-28T19:27:56.595Z,80.40
2017-11-28T19:30:24.095Z,80.20
2017-11-28T19:32:52.531Z,80.90
2017-11-28T19:35:20.039Z,80.00
2017-11-28T19:37:48.336Z,80.30
2017-11-28T19:40:15.871Z,80.30
2017-11-28T19:42:44.150Z,80.10
2017-11-28T19:45:12.505Z,79.90
2017-11-28T19:47:40.768Z,80.00
2017-11-28T19:50:08.377Z,80.00
2017-11-28T19:52:35.898Z,80.20
2017-11-28T19:55:03.424Z,80.20
2017-11-28T19:57:30.980Z,80.20
2017-11-28T19:59:58.484Z,80.40
2017-11-28T20:02:26.805Z,79.90
2017-11-28T20:04:54.370Z,79.90
2017-11-28T20:07:22.059Z,80.00
2017-11-28T20:09:49.581Z,79.90
2017-11-28T20:12:17.167Z,80.10
2017-11-28T20:14:44.709Z,80.60
2017-11-28T20:17:12.268Z,80.30
2017-11-28T20:19:39.848Z,80.00
2017-11-28T20:22:07.400Z,79.70
2017-11-28T20:24:34.958Z,79.70
2017-11-28T20:27:02.478Z,79.70
2017-11-28T20:29:29.998Z,79.90
2017-11-28T20:31:58.325Z,79.90
2017-11-28T20:34:25.844Z,79.90
2017-11-28T20:36:54.179Z,80.00
2017-11-28T20:39:21.729Z,79.90
2017-11-28T20:41:49.258Z,80.80
2017-11-28T20:44:16.821Z,80.00
2017-11-28T20:46:44.383Z,79.90
2017-11-28T20:49:17.532Z,79.90
2017-11-28T20:51:45.127Z,79.60
2017-11-28T20:54:12.695Z,79.60
2017-11-28T20:56:40.245Z,79.90
2017-11-28T20:59:07.821Z,79.50
2017-11-28T21:01:35.375Z,80.10
2017-11-28T21:04:02.897Z,80.10
2017-11-28T21:06:30.451Z,80.00
2017-11-28T21:08:58.752Z,80.00
2017-11-28T21:11:26.291Z,80.00
2017-11-28T21:13:54.586Z,80.60
2017-11-28T21:16:22.113Z,80.50
2017-11-28T21:18:50.440Z,79.60
2017-11-28T21:21:17.945Z,79.60
2017-11-28T21:23:45.510Z,79.80
2017-11-28T21:26:13.791Z,79.90
2017-11-28T21:28:41.499Z,79.80
2017-11-28T21:31:09.005Z,80.20
2017-11-28T21:33:37.314Z,79.50
2017-11-28T21:36:04.854Z,79.50
2017-11-28T21:38:32.399Z,79.00
2017-11-28T21:41:00.730Z,79.80
2017-11-28T21:43:28.267Z,80.60
2017-11-28T21:45:55.776Z,80.10
2017-11-28T21:48:23.402Z,79.80
2017-11-28T21:50:50.957Z,79.90
2017-11-28T21:53:18.511Z,80.70
2017-11-28T21:55:46.031Z,80.60
2017-11-28T21:58:14.315Z,80.30
2017-11-28T22:00:41.879Z,80.30
2017-11-28T22:03:09.416Z,80.40
2017-11-28T22:05:37.779Z,81.90
2017-11-28T22:08:05.281Z,81.10
2017-11-28T22:10:32.824Z,81.20
2017-11-28T22:13:00.344Z,81.60
2017-11-28T22:15:27.882Z,81.70
2017-11-28T22:17:55.438Z,81.40
2017-11-28T22:20:22.961Z,81.70
2017-11-28T22:22:50.517Z,81.50
2017-11-28T22:25:18.021Z,81.70
2017-11-28T22:27:45.538Z,81.50
2017-11-28T22:30:13.067Z,81.70
2017-11-28T22:32:40.560Z,81.70
2017-11-28T22:35:08.117Z,82.70
2017-11-28T22:37:35.666Z,81.90
2017-11-28T22:40:03.191Z,82.40
2017-11-28T22:42:30.732Z,82.50
2017-11-28T22:44:58.236Z,82.80
2017-11-28T22:47:25.765Z,82.50
2017-11-28T22:49:53.264Z,82.30
2017-11-28T22:52:20.807Z,82.60
2017-11-28T22:54:48.304Z,82.20
2017-11-28T22:57:15.811Z,82.20
2017-11-28T22:59:44.104Z,82.20
2017-11-28T23:02:11.606Z,82.00
2017-11-28T23:04:39.165Z,82.20
2017-11-28T23:07:06.694Z,82.10
2017-11-28T23:09:34.223Z,82.50
2017-11-28T23:12:02.510Z,82.20
2017-11-28T23:14:49.729Z,82.20
2017-11-28T23:17:18.102Z,82.10
2017-11-28T23:19:45.595Z,82.20
2017-11-28T23:22:13.172Z,82.30
2017-11-28T23:24:42.251Z,82.90
2017-11-28T23:27:09.811Z,82.80
2017-11-28T23:29:37.317Z,82.50
2017-11-28T23:32:05.626Z,82.20
2017-11-28T23:34:33.162Z,82.20
2017-11-28T23:37:00.692Z,82.10
2017-11-28T23:39:28.217Z,83.00
2017-11-28T23:41:55.723Z,82.50
2017-11-28T23:44:24.123Z,82.90
2017-11-28T23:46:51.677Z,82.80
2017-11-28T23:49:19.194Z,82.80
2017-11-28T23:51:46.744Z,83.00
2017-11-28T23:54:14.266Z,82.70
2017-11-28T23:56:41.793Z,83.40
2017-11-28T23:59:10.055Z,83.90
